• Join FlightAware (Why Join?)
  • Login
  • US Flag 
03:25AM EDT


 

Airport Tracker/Info


-or-


 

Live Flight TrackerFlight Track Log ✈ RPA3253 ✈ 12-Jun-2013 ✈ KALB - KCLT

Flight Track Log - Related Links

Times and Time Zones

All times are in EDT time to prevent confusion due to time zone crossing. See the RPA3253 flight status page for this flight to view local times or setup timezone preferences in your user account.

Time Position Orientation Groundspeed Altitude Reporting Facility
EDT Latitude Longitude Course Direction KTS MPH feet Rate Location/Type
07:30PM 42.7653 -73.8061 169° South 140 161 1,200  Level Boston Center
07:31PM 42.7983 -73.8267 335° Northwest 179 206 2,400 1,740 Climbing Boston Center
07:32PM 42.8392 -73.9067 305° West 264 304 4,400 2,580 Climbing Boston Center
07:33PM 42.4353 -74.1422 180° South  Level Estimated
07:33PM 42.8694 -73.9642 306° West 302 348 7,100  Level Boston Center
07:34PM 42.3567 -74.2268 170° South  Level Estimated
07:34PM 42.9019 -74.0414 300° West 286 329 10,200  Level Boston Center
07:35PM 42.2780 -74.3111 169° South  Level Estimated
07:35PM 42.8917 -74.1689 264° West 283 326 12,400  Level Boston Center
07:36PM 42.8608 -74.2728 248° West 310 357 15,000 2,640 Climbing Boston Center
07:37PM 42.7464 -74.2636 177° South 336 387 17,700 2,280 Climbing Boston Center
07:38PM 42.6494 -74.2044 156° South 366 421 19,600 2,040 Climbing Boston Center
07:39PM 42.5297 -74.1164 152° Southeast 410 472 21,800 1,860 Climbing Boston Center
07:40PM 42.4161 -74.0375 153° Southeast 435 501 23,400 1,680 Climbing Boston Center
07:41PM 42.2961 -73.9783 160° South 457 526 25,200 1,620 Climbing Boston Center
07:42PM 42.1728 -74.0006 188° South 439 505 26,700 1,260 Climbing Boston Center
07:43PM 42.0514 -74.0394 193° South 439 505 27,800 960 Climbing Boston Center
07:45PM 41.8225 -74.1028 192° South 461 531 29,500 900 Climbing New York Center
07:46PM 41.6925 -74.1406 192° South 472 543 30,500 900 Climbing New York Center
07:47PM 41.5664 -74.1758 192° South 477 549 31,300 720 Climbing New York Center
07:48PM 41.4319 -74.2161 193° South 471 542 32,000 600 Climbing New York Center
07:49PM 41.2936 -74.2531 191° South 485 558 32,600 660 Climbing New York Center
07:50PM 41.1550 -74.2928 192° South 507 583 33,400 1,140 Climbing New York Center
07:51PM 41.0183 -74.3325 192° South 507 583 34,900 1,020 Climbing New York Center
07:52PM 40.8817 -74.3719 192° South 507 583 35,500 540 Climbing New York Center
07:53PM 40.7628 -74.4478 206° Southwest 488 562 36,000 240 Climbing New York Center
07:54PM 40.6858 -74.5694 230° Southwest 450 518 36,000  Level New York Center
07:55PM 40.6111 -74.6939 232° Southwest 433 498 36,000  Level New York Center
07:56PM 40.5319 -74.8178 230° Southwest 438 504 36,000  Level New York Center
07:57PM 40.4442 -74.9408 227° Southwest 449 517 36,000  Level New York Center
07:58PM 40.3564 -75.0633 227° Southwest 462 532 36,000  Level New York Center
07:59PM 40.2706 -75.1858 227° Southwest 462 532 36,000  Level New York Center
08:00PM 40.1844 -75.3108 228° Southwest 462 532 36,000  Level New York Center
08:01PM 40.0967 -75.4300 226° Southwest 462 532 36,000  Level New York Center
08:02PM 40.0061 -75.5539 226° Southwest 462 532 36,000  Level New York Center
08:03PM 39.9197 -75.6753 227° Southwest 462 532 36,000  Level New York Center
08:04PM 39.8461 -75.7919 231° Southwest 462 532 36,000  Level New York Center
08:05PM 39.7697 -75.9161 231° Southwest 462 532 36,000  Level New York Center
08:07PM 39.5744 -76.2161 230° Southwest 452 520 36,000  Level Washington Center
08:08PM 39.4967 -76.3419 231° Southwest 452 520 36,000  Level Washington Center
08:09PM 39.4167 -76.4672 230° Southwest 452 520 36,000  Level Washington Center
08:10PM 39.3303 -76.5925 228° Southwest 452 520 36,000  Level Washington Center
08:11PM 39.2519 -76.7147 230° Southwest 457 526 36,000  Level Washington Center
08:12PM 39.1717 -76.8419 231° Southwest 457 526 36,000  Level Washington Center
08:13PM 39.0931 -76.9661 231° Southwest 457 526 36,000  Level Washington Center
08:14PM 39.0042 -77.0822 225° Southwest 457 526 36,000  Level Washington Center
08:15PM 38.9050 -77.1894 220° Southwest 457 526 36,000  Level Washington Center
08:16PM 38.8094 -77.2992 222° Southwest 469 540 36,000  Level Washington Center
08:17PM 38.7100 -77.4086 221° Southwest 474 545 36,000  Level Washington Center
08:18PM 38.6144 -77.5206 222° Southwest 474 545 36,000  Level Washington Center
08:19PM 38.5144 -77.6322 221° Southwest 474 545 36,000  Level Washington Center
08:20PM 38.4189 -77.7436 222° Southwest 474 545 36,000  Level Washington Center
08:21PM 38.3144 -77.8594 221° Southwest 474 545 36,000  Level Washington Center
08:22PM 38.2164 -77.9703 222° Southwest 474 545 36,000  Level Washington Center
08:23PM 38.1183 -78.0781 221° Southwest 474 545 36,000  Level Washington Center
08:24PM 38.0242 -78.1856 222° Southwest 474 545 36,000  Level Washington Center
08:25PM 37.9303 -78.2903 221° Southwest 464 534 36,000  Level Washington Center
08:26PM 37.8297 -78.3972 220° Southwest 471 542 36,000 -120 Level Washington Center
08:27PM 37.7333 -78.5039 221° Southwest 471 542 35,800 -720 Descending Washington Center
08:28PM 37.6306 -78.6125 220° Southwest 471 542 34,600 -1,260 Descending Washington Center
08:29PM 37.5425 -78.7086 221° Southwest 471 542 33,300 -1,200 Descending Washington Center
08:30PM 37.4458 -78.8119 220° Southwest 465 535 32,200 -1,200 Descending Washington Center
08:31PM 37.3536 -78.9125 221° Southwest 459 528 31,000 -1,140 Descending Washington Center
08:32PM 37.2631 -79.0078 220° Southwest 449 517 29,900 -1,260 Descending Washington Center
08:33PM 37.1664 -79.1131 221° Southwest 429 494 28,600 -1,020 Descending Washington Center
08:34PM 37.0800 -79.2053 220° Southwest 419 482 28,000 -300 Descending Washington Center
08:35PM 36.9875 -79.3025 220° Southwest 419 482 28,000  Level Washington Center
08:36PM 36.8903 -79.4042 220° Southwest 436 502 28,000  Level Washington Center
08:37PM 36.7972 -79.5061 221° Southwest 449 517 28,000  Level Washington Center
08:38PM 36.7086 -79.5975 220° Southwest 454 522 28,000  Level Washington Center
08:40PM 36.5208 -79.7917 220° Southwest 443 510 28,000 -960 Level Atlanta Center
08:41PM 36.4261 -79.8922 221° Southwest 449 517 25,400 -2,760 Descending Atlanta Center
08:42PM 36.3333 -79.9872 220° Southwest 449 517 22,500 -1,740 Descending Atlanta Center
08:43PM 36.2381 -80.0719 216° Southwest 439 505 22,000 -1,020 Descending Atlanta Center
08:44PM 36.1531 -80.1456 215° Southwest 427 491 20,500 -1,920 Descending Atlanta Center
08:46PM 35.9722 -80.3006 215° Southwest 409 471 16,400 -2,160 Descending Atlanta Center
08:46PM 35.9092 -80.3572 216° Southwest 377 434 14,900 -2,220 Descending Atlanta Center
08:47PM 35.8419 -80.4139 214° Southwest 375 432 13,300 -1,800 Descending Atlanta Center
08:48PM 35.7606 -80.4842 215° Southwest 313 360 11,600 -1,320 Descending Atlanta Center
08:49PM 35.6803 -80.5208 200° South 307 353 10,700 -1,380 Descending Atlanta Center
08:50PM 35.6003 -80.5625 203° Southwest 311 358 8,900 -1,320 Descending Atlanta Center
08:51PM 35.5672 -80.5767 199° South 314 361 8,700 -540 Descending Atlanta Center
08:51PM 35.5325 -80.6014 210° Southwest 265 305 8,400 -840 Descending Atlanta Center
08:52PM 35.5036 -80.6153 201° Southwest 276 318 7,900 -1,200 Descending Atlanta Center
08:52PM 35.4625 -80.6397 206° Southwest 243 280 7,200 -840 Descending Atlanta Center
08:53PM 35.4419 -80.6508 204° Southwest 255 293 7,100 -300 Descending Atlanta Center
08:53PM 35.4114 -80.6725 210° Southwest 197 227 6,900 -600 Descending Atlanta Center
08:54PM 35.3992 -80.6883 227° Southwest 218 251 6,500 -1,020 Descending Atlanta Center
08:54PM 35.3769 -80.7172 227° Southwest 165 190 5,900 -900 Descending Atlanta Center
08:55PM 35.3669 -80.7331 232° Southwest 182 209 5,600 -1,200 Descending Atlanta Center
08:55PM 35.3469 -80.7617 229° Southwest 171 197 4,700 -1,320 Descending Atlanta Center
08:56PM 35.3308 -80.7828 227° Southwest 172 198 4,300 -960 Descending Atlanta Center